createdAt,value
2018-11-01T00:00:22.462Z,77.98
2018-11-01T00:02:51.799Z,77.95
2018-11-01T00:05:21.188Z,78.31
2018-11-01T00:07:50.563Z,78.27
2018-11-01T00:10:19.983Z,78.11
2018-11-01T00:12:49.871Z,78.57
2018-11-01T00:15:19.214Z,78.32
2018-11-01T00:17:48.580Z,78.24
2018-11-01T00:20:17.905Z,78.59
2018-11-01T00:22:47.275Z,78.59
2018-11-01T00:25:16.618Z,78.40
2018-11-01T00:27:45.998Z,78.36
2018-11-01T00:30:15.335Z,78.54
2018-11-01T00:32:44.677Z,78.41
2018-11-01T00:35:13.995Z,77.96
2018-11-01T00:37:43.337Z,78.11
2018-11-01T00:40:15.319Z,77.95
2018-11-01T00:42:45.153Z,77.77
2018-11-01T00:45:14.674Z,77.20
2018-11-01T00:47:44.054Z,77.58
2018-11-01T00:50:14.636Z,77.73
2018-11-01T00:52:44.549Z,77.71
2018-11-01T00:55:14.448Z,77.65
2018-11-01T00:57:44.094Z,77.13
2018-11-01T01:00:15.204Z,77.80
2018-11-01T01:02:44.555Z,77.76
2018-11-01T01:05:13.925Z,77.59
2018-11-01T01:08:13.906Z,77.48
2018-11-01T01:10:44.456Z,77.66
2018-11-01T01:13:13.807Z,78.04
2018-11-01T01:15:43.118Z,78.00
2018-11-01T01:18:12.419Z,78.04
2018-11-01T01:20:41.749Z,77.47
2018-11-01T01:23:11.168Z,77.44
2018-11-01T01:25:40.505Z,77.86
2018-11-01T01:28:10.735Z,77.82
2018-11-01T01:30:40.143Z,77.90
2018-11-01T01:33:09.525Z,77.84
2018-11-01T01:35:38.877Z,78.06
2018-11-01T01:38:08.217Z,78.25
2018-11-01T01:40:37.582Z,78.42
2018-11-01T01:43:06.930Z,78.25
2018-11-01T01:45:36.286Z,78.14
2018-11-01T01:48:07.034Z,78.74
2018-11-01T01:50:36.416Z,78.45
2018-11-01T01:53:06.025Z,78.55
2018-11-01T01:55:35.442Z,78.53
2018-11-01T01:58:06.070Z,78.41
2018-11-01T02:00:35.481Z,78.88
2018-11-01T02:08:07.114Z,78.84
2018-11-01T02:10:36.515Z,78.80
2018-11-01T02:13:06.903Z,78.88
2018-11-01T02:15:36.295Z,78.78
2018-11-01T02:18:06.445Z,78.70
2018-11-01T02:20:35.794Z,78.68
2018-11-01T02:23:06.655Z,78.71
2018-11-01T02:25:35.997Z,78.64
2018-11-01T02:28:14.912Z,78.38
2018-11-01T02:30:44.261Z,78.72
2018-11-01T02:33:13.570Z,78.80
2018-11-01T02:35:42.927Z,79.06
2018-11-01T02:38:12.409Z,78.74
2018-11-01T02:40:41.620Z,78.97
2018-11-01T02:43:11.035Z,78.94
2018-11-01T02:45:40.646Z,79.10
2018-11-01T02:48:10.216Z,79.01
2018-11-01T02:50:39.619Z,79.00
2018-11-01T02:53:09.074Z,78.86
2018-11-01T02:55:38.487Z,78.98
2018-11-01T02:58:08.128Z,78.98
2018-11-01T03:00:37.523Z,78.84
2018-11-01T03:03:06.942Z,78.84
2018-11-01T03:05:36.369Z,79.09
2018-11-01T03:08:06.381Z,79.20
2018-11-01T03:10:35.790Z,79.59
2018-11-01T03:13:06.488Z,79.34
2018-11-01T03:15:36.059Z,79.39
2018-11-01T03:18:06.996Z,79.25
2018-11-01T03:20:36.366Z,79.51
2018-11-01T03:23:10.639Z,79.18
2018-11-01T03:25:40.206Z,78.80
2018-11-01T03:28:09.629Z,79.00
2018-11-01T03:30:39.039Z,79.10
2018-11-01T03:33:08.563Z,79.61
2018-11-01T03:35:38.080Z,79.18
2018-11-01T03:38:07.624Z,79.03
2018-11-01T03:40:37.214Z,79.13
2018-11-01T03:43:06.775Z,79.16
2018-11-01T03:45:36.408Z,79.20
2018-11-01T03:48:06.784Z,79.23
2018-11-01T03:50:37.047Z,79.28
2018-11-01T03:53:06.620Z,79.48
2018-11-01T03:55:36.101Z,79.71
2018-11-01T03:58:06.762Z,79.50
2018-11-01T04:00:36.184Z,79.58
2018-11-01T04:03:06.427Z,79.32
2018-11-01T04:05:36.005Z,79.48
2018-11-01T04:08:06.653Z,79.00
2018-11-01T04:10:36.203Z,79.24
2018-11-01T04:13:06.676Z,79.34
2018-11-01T04:15:36.273Z,79.33
2018-11-01T04:18:06.334Z,79.53
2018-11-01T04:20:35.847Z,79.28
2018-11-01T04:23:06.411Z,79.11
2018-11-01T04:25:37.040Z,79.12
2018-11-01T04:28:06.582Z,79.30
2018-11-01T04:30:36.112Z,79.02
2018-11-01T04:33:06.663Z,78.81
2018-11-01T04:35:36.181Z,78.88
2018-11-01T04:38:06.790Z,79.04
2018-11-01T04:40:36.187Z,79.01
2018-11-01T04:43:07.034Z,79.22
2018-11-01T04:45:36.371Z,79.18
2018-11-01T04:48:06.218Z,79.42
2018-11-01T04:50:35.545Z,79.00
2018-11-01T04:53:06.334Z,79.01
2018-11-01T04:55:35.877Z,78.89
2018-11-01T04:58:06.486Z,78.80
2018-11-01T05:00:35.797Z,79.02
2018-11-01T05:03:06.568Z,78.61
2018-11-01T05:05:35.954Z,78.69
2018-11-01T05:08:06.188Z,78.86
2018-11-01T05:10:35.506Z,78.76
2018-11-01T05:13:06.071Z,78.40
2018-11-01T05:15:35.429Z,78.40
2018-11-01T05:18:06.171Z,78.37
2018-11-01T05:20:35.523Z,78.62
2018-11-01T05:23:06.201Z,78.36
2018-11-01T05:25:35.653Z,78.27
2018-11-01T05:28:04.983Z,78.10
2018-11-01T05:30:34.373Z,78.28
2018-11-01T05:33:03.755Z,78.23
2018-11-01T05:35:33.068Z,78.14
2018-11-01T05:38:02.426Z,78.10
2018-11-01T05:40:31.741Z,78.02
2018-11-01T05:43:01.126Z,78.02
2018-11-01T05:45:30.475Z,78.38
2018-11-01T05:47:59.800Z,78.66
2018-11-01T05:50:29.183Z,78.15
2018-11-01T05:52:58.539Z,78.70
2018-11-01T05:55:28.948Z,78.12
2018-11-01T05:57:58.334Z,78.18
2018-11-01T06:00:27.661Z,77.94
2018-11-01T06:02:57.035Z,78.27
2018-11-01T06:05:26.370Z,78.13
2018-11-01T06:07:58.466Z,78.43
2018-11-01T06:10:28.062Z,78.26
2018-11-01T06:12:57.403Z,78.48
2018-11-01T06:15:26.734Z,78.53
2018-11-01T06:17:56.932Z,78.57
2018-11-01T06:21:10.553Z,78.43
2018-11-01T06:23:39.947Z,78.93
2018-11-01T06:26:09.305Z,78.37
2018-11-01T06:28:38.675Z,78.68
2018-11-01T06:31:08.027Z,78.41
2018-11-01T06:33:37.506Z,78.33
2018-11-01T06:36:08.762Z,77.58
2018-11-01T06:38:38.134Z,77.65
2018-11-01T06:41:07.514Z,78.03
2018-11-01T06:43:36.846Z,77.79
2018-11-01T06:46:06.343Z,77.89
2018-11-01T06:48:35.661Z,77.83
2018-11-01T06:51:06.986Z,78.17
2018-11-01T06:53:36.329Z,78.02
2018-11-01T06:56:06.399Z,77.87
2018-11-01T06:58:35.834Z,77.67
2018-11-01T07:01:06.821Z,77.78
2018-11-01T07:03:36.155Z,77.81
2018-11-01T07:06:06.672Z,77.64
2018-11-01T07:08:36.987Z,77.79
2018-11-01T07:11:06.724Z,77.52
2018-11-01T07:13:36.261Z,77.53
2018-11-01T07:16:06.699Z,77.16
2018-11-01T07:18:36.047Z,77.10
2018-11-01T07:21:06.491Z,77.29
2018-11-01T07:23:41.696Z,77.25
2018-11-01T07:26:11.237Z,77.09
2018-11-01T07:28:40.443Z,76.80
2018-11-01T07:31:09.819Z,76.86
2018-11-01T07:33:39.166Z,76.79
2018-11-01T07:36:08.502Z,76.99
2018-11-01T07:38:38.484Z,76.67
2018-11-01T07:41:07.879Z,76.57
2018-11-01T07:43:37.243Z,76.61
2018-11-01T07:46:06.924Z,76.75
2018-11-01T07:48:36.375Z,76.89
2018-11-01T07:51:06.270Z,76.60
2018-11-01T07:53:36.634Z,76.72
2018-11-01T07:56:06.880Z,76.40
2018-11-01T08:01:11.108Z,75.96
2018-11-01T08:03:40.516Z,75.73
2018-11-01T08:06:09.913Z,75.87
2018-11-01T08:08:39.218Z,75.55
2018-11-01T08:11:08.566Z,75.48
2018-11-01T08:13:37.947Z,75.04
2018-11-01T08:16:08.936Z,75.23
2018-11-01T08:18:38.470Z,75.05
2018-11-01T08:21:08.119Z,75.00
2018-11-01T08:23:37.360Z,75.16
2018-11-01T08:26:06.785Z,74.56
2018-11-01T08:28:36.173Z,74.82
2018-11-01T08:31:06.510Z,74.77
2018-11-01T08:33:35.953Z,74.63
2018-11-01T08:36:06.023Z,74.46
2018-11-01T08:38:36.035Z,74.68
2018-11-01T08:41:06.363Z,74.48
2018-11-01T08:43:35.868Z,74.46
2018-11-01T08:46:06.873Z,74.57
2018-11-01T08:48:36.335Z,74.51
2018-11-01T08:51:05.967Z,74.36
2018-11-01T08:53:38.371Z,74.39
2018-11-01T08:56:07.939Z,74.32
2018-11-01T08:58:38.744Z,73.82
2018-11-01T09:01:08.144Z,74.00
2018-11-01T09:03:37.531Z,73.45
2018-11-01T09:06:06.966Z,73.72
2018-11-01T09:08:36.375Z,73.39
2018-11-01T09:11:06.343Z,73.34
2018-11-01T09:13:35.754Z,73.41
2018-11-01T09:16:07.311Z,72.94
2018-11-01T09:18:36.782Z,72.62
2018-11-01T09:21:06.641Z,72.40
2018-11-01T09:23:36.091Z,72.47
2018-11-01T09:26:06.106Z,71.99
2018-11-01T09:28:35.475Z,71.19
2018-11-01T09:31:06.122Z,70.91
2018-11-01T09:33:35.519Z,70.80
2018-11-01T09:36:06.040Z,70.58
2018-11-01T09:38:35.486Z,70.07
2018-11-01T09:41:05.498Z,70.44
2018-11-01T09:43:34.915Z,69.98
2018-11-01T09:46:04.459Z,69.78
2018-11-01T09:48:33.827Z,69.59
2018-11-01T09:51:03.266Z,69.50
2018-11-01T09:53:32.682Z,68.91
2018-11-01T09:56:02.144Z,68.50
2018-11-01T09:58:31.646Z,68.45
2018-11-01T10:01:01.106Z,68.81
2018-11-01T10:03:30.555Z,68.95
2018-11-01T10:05:59.962Z,68.39
2018-11-01T10:08:30.429Z,68.72
2018-11-01T10:10:59.929Z,68.11
2018-11-01T10:13:29.411Z,67.98
2018-11-01T10:15:59.031Z,67.60
2018-11-01T10:18:28.615Z,67.64
2018-11-01T10:20:57.710Z,66.97
2018-11-01T10:23:27.086Z,66.72
2018-11-01T10:25:56.504Z,67.27
2018-11-01T10:28:25.935Z,66.74
2018-11-01T10:30:55.311Z,67.10
2018-11-01T10:33:24.688Z,66.58
2018-11-01T10:35:54.109Z,66.49
2018-11-01T10:38:24.647Z,66.56
2018-11-01T10:40:54.760Z,65.64
2018-11-01T10:43:24.104Z,65.73
2018-11-01T10:45:53.447Z,65.51
2018-11-01T10:48:23.742Z,65.23
2018-11-01T10:50:53.139Z,64.52
2018-11-01T10:53:22.565Z,64.49
2018-11-01T10:55:51.971Z,64.49
2018-11-01T10:58:21.311Z,64.49
2018-11-01T11:00:56.035Z,64.10
2018-11-01T11:03:25.315Z,64.26
2018-11-01T11:05:55.373Z,64.62
2018-11-01T11:08:24.783Z,63.52
2018-11-01T11:10:54.192Z,63.72
2018-11-01T11:13:23.511Z,63.66
2018-11-01T11:15:53.047Z,62.62
2018-11-01T11:18:22.375Z,62.56
2018-11-01T11:20:52.008Z,62.76
2018-11-01T11:23:21.084Z,61.90
2018-11-01T11:25:50.445Z,61.88
2018-11-01T11:28:19.775Z,62.07
2018-11-01T11:30:49.242Z,61.80
2018-11-01T11:33:18.596Z,62.28
2018-11-01T11:35:48.823Z,61.86
2018-11-01T11:38:18.191Z,62.26
2018-11-01T11:40:47.541Z,62.41
2018-11-01T11:43:16.921Z,62.43
2018-11-01T11:45:46.238Z,62.40
2018-11-01T11:48:15.587Z,62.08
2018-11-01T11:50:44.975Z,62.03
2018-11-01T11:53:14.397Z,62.39
2018-11-01T11:55:43.825Z,62.25
2018-11-01T11:58:13.221Z,62.65
2018-11-01T12:00:42.622Z,62.16
2018-11-01T12:03:12.902Z,62.25
2018-11-01T12:05:42.305Z,62.98
2018-11-01T12:08:11.615Z,62.96
2018-11-01T12:10:40.956Z,63.22
2018-11-01T12:13:10.274Z,63.80
2018-11-01T12:15:39.672Z,63.88
2018-11-01T12:18:09.016Z,63.18
2018-11-01T12:20:38.452Z,63.28
2018-11-01T12:23:07.409Z,63.57
2018-11-01T12:25:36.775Z,64.03
2018-11-01T12:28:13.115Z,63.99
2018-11-01T12:30:42.461Z,63.83
2018-11-01T12:33:11.814Z,63.97
2018-11-01T12:35:41.235Z,64.12
2018-11-01T12:38:10.545Z,64.60
2018-11-01T12:40:39.885Z,64.70
2018-11-01T12:43:09.231Z,64.26
2018-11-01T12:45:38.579Z,64.52
2018-11-01T12:48:07.943Z,65.62
2018-11-01T12:50:37.297Z,64.79
2018-11-01T12:53:06.632Z,65.47
2018-11-01T12:55:35.966Z,65.50
2018-11-01T12:58:06.287Z,65.42
2018-11-01T13:00:35.735Z,65.25
2018-11-01T13:03:06.274Z,65.09
2018-11-01T13:05:35.615Z,65.27
2018-11-01T13:08:06.503Z,64.99
2018-11-01T13:10:35.863Z,64.81
2018-11-01T13:13:06.398Z,64.96
2018-11-01T13:15:35.756Z,65.37
2018-11-01T13:18:06.469Z,65.06
2018-11-01T13:20:35.737Z,65.63
2018-11-01T13:23:06.295Z,64.80
2018-11-01T13:25:35.653Z,66.41
2018-11-01T13:28:06.291Z,65.67
2018-11-01T13:30:35.606Z,65.84
2018-11-01T13:33:06.223Z,66.06
2018-11-01T13:35:35.743Z,66.34
2018-11-01T13:38:06.400Z,65.77
2018-11-01T13:40:36.130Z,66.30
2018-11-01T13:43:06.364Z,66.19
2018-11-01T13:45:35.751Z,65.92
2018-11-01T13:48:06.633Z,66.45
2018-11-01T13:50:35.775Z,66.58
2018-11-01T13:53:06.514Z,66.13
2018-11-01T13:55:35.906Z,66.81
2018-11-01T13:58:06.391Z,66.45
2018-11-01T14:00:35.722Z,66.79
2018-11-01T14:03:06.569Z,67.56
2018-11-01T14:05:35.916Z,67.37
2018-11-01T14:08:06.235Z,67.72
2018-11-01T14:10:35.544Z,66.79
2018-11-01T14:13:06.249Z,67.72
2018-11-01T14:15:35.600Z,67.72
2018-11-01T14:18:06.455Z,68.24
2018-11-01T14:20:35.815Z,68.06
2018-11-01T14:23:06.662Z,68.30
2018-11-01T14:25:36.115Z,68.28
2018-11-01T14:28:06.253Z,68.42
2018-11-01T14:30:35.584Z,68.45
2018-11-01T14:33:05.030Z,68.27
2018-11-01T14:35:34.350Z,68.62
2018-11-01T14:38:03.849Z,68.65
2018-11-01T14:40:33.014Z,69.10
2018-11-01T14:43:02.390Z,69.17
2018-11-01T14:45:31.722Z,68.88
2018-11-01T14:48:01.106Z,68.89
2018-11-01T14:50:30.430Z,69.03
2018-11-01T14:53:00.748Z,69.25
2018-11-01T14:55:30.367Z,69.38
2018-11-01T14:58:00.091Z,69.40
2018-11-01T15:00:27.912Z,69.51
2018-11-01T15:02:57.337Z,69.45
2018-11-01T15:05:26.664Z,70.04
2018-11-01T15:07:56.043Z,70.56
2018-11-01T15:10:25.327Z,70.24
2018-11-01T15:12:54.759Z,70.82
2018-11-01T15:15:24.005Z,70.18
2018-11-01T15:17:53.365Z,70.52
2018-11-01T15:20:22.731Z,71.14
2018-11-01T15:22:52.144Z,71.53
2018-11-01T15:25:21.488Z,71.76
2018-11-01T15:27:50.844Z,71.69
2018-11-01T15:30:20.226Z,71.55
2018-11-01T15:32:49.611Z,72.01
2018-11-01T15:35:18.970Z,72.31
2018-11-01T15:37:48.299Z,72.74
2018-11-01T15:40:17.637Z,72.42
2018-11-01T15:42:46.985Z,72.54
2018-11-01T15:45:16.356Z,72.73
2018-11-01T15:47:45.685Z,73.23
2018-11-01T15:50:15.395Z,73.58
2018-11-01T15:52:45.005Z,73.71
2018-11-01T15:55:14.385Z,73.90
2018-11-01T15:57:43.784Z,73.67
2018-11-01T16:00:14.254Z,73.97
2018-11-01T16:02:44.677Z,74.42
2018-11-01T16:05:14.747Z,74.42
2018-11-01T16:07:44.339Z,74.85
2018-11-01T16:10:14.052Z,74.87
2018-11-01T16:12:43.251Z,75.31
2018-11-01T16:15:13.847Z,75.21
2018-11-01T16:17:43.217Z,75.76
2018-11-01T16:21:15.770Z,76.01
2018-11-01T16:23:45.170Z,76.10
2018-11-01T16:26:14.572Z,76.19
2018-11-01T16:28:45.349Z,76.48
2018-11-01T16:31:15.962Z,76.44
2018-11-01T16:33:45.324Z,76.19
2018-11-01T16:36:14.989Z,76.43
2018-11-01T16:38:44.351Z,77.03
2018-11-01T16:41:14.232Z,77.00
2018-11-01T16:43:43.583Z,77.30
2018-11-01T16:46:13.022Z,77.79
2018-11-01T16:48:42.563Z,77.50
2018-11-01T16:51:12.114Z,77.86
2018-11-01T16:53:41.503Z,78.02
2018-11-01T16:56:10.831Z,77.93
2018-11-01T16:58:41.450Z,77.99
2018-11-01T17:01:10.797Z,78.42
2018-11-01T17:03:40.224Z,78.49
2018-11-01T17:06:09.859Z,78.13
2018-11-01T17:08:39.597Z,78.61
2018-11-01T17:11:09.050Z,78.83
2018-11-01T17:13:38.553Z,78.73
2018-11-01T17:16:08.404Z,79.24
2018-11-01T17:18:37.967Z,79.31
2018-11-01T17:21:07.589Z,79.03
2018-11-01T17:23:37.186Z,79.60
2018-11-01T17:26:06.728Z,79.10
2018-11-01T17:28:36.198Z,79.37
2018-11-01T17:31:06.494Z,79.27
2018-11-01T17:33:36.019Z,79.26
2018-11-01T17:36:06.517Z,79.77
2018-11-01T17:38:36.046Z,79.68
2018-11-01T17:41:06.657Z,79.87
2018-11-01T17:43:36.216Z,79.73
2018-11-01T17:46:06.315Z,80.06
2018-11-01T17:48:35.799Z,79.89
2018-11-01T17:53:35.674Z,80.14
2018-11-01T17:56:07.329Z,80.09
2018-11-01T17:58:36.791Z,80.22
2018-11-01T18:01:06.721Z,80.04
2018-11-01T18:03:36.116Z,80.65
2018-11-01T18:06:06.552Z,80.42
2018-11-01T18:08:36.148Z,80.60
2018-11-01T18:11:06.284Z,80.81
2018-11-01T18:13:35.679Z,80.64
2018-11-01T18:16:06.145Z,80.67
2018-11-01T18:18:35.538Z,80.53
2018-11-01T18:21:06.221Z,80.76
2018-11-01T18:23:35.695Z,80.74
2018-11-01T18:26:06.339Z,80.83
2018-11-01T18:28:35.707Z,80.98
2018-11-01T18:31:06.464Z,81.40
2018-11-01T18:33:35.836Z,81.00
2018-11-01T18:36:06.489Z,81.05
2018-11-01T18:38:35.871Z,81.20
2018-11-01T18:41:06.419Z,81.30
2018-11-01T18:44:06.593Z,81.18
2018-11-01T18:46:36.258Z,81.36
2018-11-01T18:49:06.358Z,81.45
2018-11-01T18:51:35.756Z,81.35
2018-11-01T18:54:06.763Z,81.37
2018-11-01T18:56:36.019Z,81.75
2018-11-01T18:59:06.225Z,81.85
2018-11-01T19:01:35.618Z,81.83
2018-11-01T19:04:06.415Z,81.53
2018-11-01T19:06:35.836Z,81.57
2018-11-01T19:09:09.390Z,81.60
2018-11-01T19:11:38.790Z,82.03
2018-11-01T19:14:12.387Z,81.85
2018-11-01T19:16:41.819Z,81.59
2018-11-01T19:19:11.205Z,81.90
2018-11-01T19:21:40.557Z,81.64
2018-11-01T19:24:09.857Z,81.95
2018-11-01T19:26:42.063Z,82.08
2018-11-01T19:29:12.482Z,82.00
2018-11-01T19:31:41.858Z,82.04
2018-11-01T19:34:11.337Z,82.12
2018-11-01T19:36:40.635Z,82.10
2018-11-01T19:39:13.195Z,82.29
2018-11-01T19:41:42.723Z,81.95
2018-11-01T19:44:12.080Z,82.40
2018-11-01T19:46:41.487Z,82.12
2018-11-01T19:49:10.853Z,82.37
2018-11-01T19:51:40.258Z,82.52
2018-11-01T19:54:09.637Z,82.45
2018-11-01T19:56:38.990Z,82.44
2018-11-01T19:59:11.085Z,82.15
2018-11-01T20:01:40.512Z,82.37
2018-11-01T20:04:09.925Z,82.18
2018-11-01T20:06:39.243Z,82.59
2018-11-01T20:09:09.536Z,82.38
2018-11-01T20:11:39.407Z,82.61
2018-11-01T20:14:09.567Z,82.24
2018-11-01T20:16:39.174Z,82.23
2018-11-01T20:19:08.862Z,82.79
2018-11-01T20:21:38.482Z,82.79
2018-11-01T20:24:07.982Z,82.56
2018-11-01T20:26:37.577Z,82.77
2018-11-01T20:29:08.261Z,82.18
2018-11-01T20:31:37.850Z,82.19
2018-11-01T20:34:07.550Z,82.36
2018-11-01T20:36:37.147Z,82.41
2018-11-01T20:39:10.902Z,82.45
2018-11-01T20:41:40.909Z,82.43
2018-11-01T20:44:11.093Z,82.49
2018-11-01T20:46:40.735Z,82.52
2018-11-01T20:49:10.302Z,82.53
2018-11-01T20:51:39.919Z,82.61
2018-11-01T20:54:09.527Z,82.21
2018-11-01T20:56:39.117Z,82.22
2018-11-01T20:59:08.631Z,82.35
2018-11-01T21:01:38.314Z,82.22
2018-11-01T21:04:12.705Z,82.69
2018-11-01T21:06:42.267Z,82.59
2018-11-01T21:09:12.497Z,82.43
2018-11-01T21:11:42.189Z,82.75
2018-11-01T21:14:11.604Z,82.51
2018-11-01T21:16:41.375Z,82.93
2018-11-01T21:19:11.722Z,82.55
2018-11-01T21:21:41.352Z,83.17
2018-11-01T21:24:11.295Z,82.52
2018-11-01T21:26:40.803Z,82.75
2018-11-01T21:29:10.281Z,82.96
2018-11-01T21:31:39.671Z,83.04
2018-11-01T21:34:09.277Z,82.79
2018-11-01T21:36:38.778Z,82.76
2018-11-01T21:39:08.794Z,82.84
2018-11-01T21:41:38.201Z,82.81
2018-11-01T21:44:07.814Z,83.16
2018-11-01T21:46:37.380Z,82.76
2018-11-01T21:49:07.106Z,82.97
2018-11-01T21:51:36.751Z,83.11
2018-11-01T21:54:06.820Z,82.87
2018-11-01T21:56:36.287Z,82.83
2018-11-01T21:59:06.179Z,82.93
2018-11-01T22:01:35.816Z,83.03
2018-11-01T22:04:06.550Z,82.93
2018-11-01T22:06:36.188Z,82.81
2018-11-01T22:09:08.427Z,83.16
2018-11-01T22:11:38.092Z,83.24
2018-11-01T22:14:08.002Z,83.10
2018-11-01T22:16:37.523Z,82.55
2018-11-01T22:19:07.127Z,83.48
2018-11-01T22:21:38.254Z,83.22
2018-11-01T22:24:07.983Z,82.95
2018-11-01T22:26:37.629Z,83.12
2018-11-01T22:29:07.183Z,83.11
2018-11-01T22:31:36.683Z,83.29
2018-11-01T22:34:06.600Z,83.51
2018-11-01T22:36:36.191Z,83.43
2018-11-01T22:39:08.560Z,83.27
2018-11-01T22:41:38.234Z,83.36
2018-11-01T22:44:07.743Z,83.47
2018-11-01T22:46:37.238Z,83.33
2018-11-01T22:49:06.814Z,83.10
2018-11-01T22:51:36.305Z,83.22
2018-11-01T22:54:06.489Z,83.49
2018-11-01T22:56:35.850Z,83.39
2018-11-01T22:59:06.430Z,83.34
2018-11-01T23:01:35.789Z,83.37
2018-11-01T23:04:06.758Z,83.30
2018-11-01T23:06:36.080Z,83.42
2018-11-01T23:09:08.382Z,83.28
2018-11-01T23:11:38.076Z,83.15
2018-11-01T23:14:07.507Z,83.42
2018-11-01T23:16:37.113Z,83.58
2018-11-01T23:19:06.591Z,83.55
2018-11-01T23:21:35.918Z,84.03
2018-11-01T23:24:06.539Z,83.77
2018-11-01T23:26:35.885Z,83.94
2018-11-01T23:29:06.519Z,83.91
2018-11-01T23:31:35.879Z,84.04
2018-11-01T23:34:05.947Z,83.59
2018-11-01T23:36:40.493Z,83.80
2018-11-01T23:39:15.536Z,83.89
2018-11-01T23:41:50.065Z,83.93
2018-11-01T23:44:24.745Z,83.20
2018-11-01T23:46:59.097Z,83.57
2018-11-01T23:49:29.223Z,83.09
2018-11-01T23:52:01.596Z,83.72
2018-11-01T23:54:30.995Z,83.71
2018-11-01T23:57:00.356Z,83.49
2018-11-01T23:59:29.730Z,83.56
